International Virtual Aviation Organisation

Russian Federation and Kazakhstan MCD

 

Карточка аэропорта ULAA

Внимание!
Информация на этой странице в стадии наполнения.
Если вы не увидели какой-то информации, или заметили неточность - пожалуйста сообщите нам!
Спасибо!
Команда RU-STAFF
Название аэропортаТалаги
Название аэропорта (англ.)Talagi
Превышение62 ft. (18.9 m.)
Координаты64°36.018', 40°43.002'
Высота перехода800m
Эшелон переходаQFE>=760mm:FL040; QFE<760=>733:FL050; QFE<733:FL060
Коды ответчика3120-3127
Зона ОрВДАрхангельск РПИ (ULAA)
Данные METARULAA 052000Z 32002MPS CAVOK M04/M07 Q1019 R26/390148 NOSIG RMK QFE762/1017
Проноз погоды (TAF)ULAA 051700Z 0518/0618 33004MPS 6000 -SN FEW007 BKN013 TEMPO 0518/0521 29006G14MPS 0600 +SHSN BLSN BKN002 BKN011CB FM052100 26003G09MPS 9000 SCT014 TEMPO 0521/0524 30004G12MPS 4000 -SHSN FEW006 BKN012CB TEMPO 0600/0609 24004G10MPS 6000 -SHSN BKN013CB
NOTAMshow/hide NOTAM
AWOS   TABLE

Информация о ВПП


Диспетчерские позиции

Позывной Наименование органа УВД Частота
ULAA_APPАрхангельск-Подход122.0
ULAA_TWRАрхангельск-Вышка121.8



Спутниковое изображение